Time;durP1;ratioP1;P1;durP2;ratioP2;P2;SDS_P1;SDS_P2;PMS_P1;PMS_P2;Temp;Humidity;BMP_temperature;BMP_pressure;BME280_temperature;BME280_humidity;BME280_pressure;Samples;Min_cycle;Max_cycle;Signal;HPM_P1;HPM_P2
2021/05/28 00:00:48;;;;;;;6.53;3.10;;;;;;;15.06;66.56;100808.49;1753404;80;21183;-63
2021/05/28 00:03:21;;;;;;;12.98;3.72;;;;;;;15.05;66.62;100808.62;1750692;80;21255;-64
2021/05/28 00:05:54;;;;;;;10.00;3.30;;;;;;;15.01;66.61;100808.11;1753531;80;21275;-63
2021/05/28 00:08:28;;;;;;;7.92;3.30;;;;;;;14.99;66.67;100807.44;1748061;80;21318;-64
2021/05/28 00:11:01;;;;;;;;;;;;;;;14.96;66.84;100810.37;1766753;80;21702;-63
2021/05/28 00:13:34;;;;;;;11.33;3.77;;;;;;;14.95;66.85;100814.48;1742456;80;20172;-63
2021/05/28 00:16:07;;;;;;;8.27;3.07;;;;;;;14.89;66.88;100805.36;1772219;80;21303;-63
2021/05/28 00:18:40;;;;;;;10.00;3.35;;;;;;;14.87;66.91;100806.48;1766340;80;22162;-64
2021/05/28 00:21:14;;;;;;;7.60;3.40;;;;;;;14.82;66.94;100803.83;1770497;81;21292;-63
2021/05/28 00:23:48;;;;;;;19.50;3.70;;;;;;;14.80;67.03;100802.31;1744324;81;21342;-64
2021/05/28 00:26:21;;;;;;;8.03;3.25;;;;;;;14.80;67.13;100798.36;1763048;80;21308;-64
2021/05/28 00:28:55;;;;;;;10.75;3.10;;;;;;;14.78;67.21;100799.81;1763466;80;21798;-63
2021/05/28 00:31:28;;;;;;;8.28;3.80;;;;;;;14.78;67.23;100798.48;1761821;81;21251;-63
2021/05/28 00:34:01;;;;;;;12.03;3.10;;;;;;;14.78;67.28;100801.12;1760288;80;21298;-63
2021/05/28 00:36:34;;;;;;;12.33;3.65;;;;;;;14.77;67.30;100798.66;1757720;81;21843;-63
2021/05/28 00:39:08;;;;;;;10.32;3.27;;;;;;;14.76;67.33;100801.77;1767858;80;21192;-63
2021/05/28 00:41:42;;;;;;;8.98;2.87;;;;;;;14.73;67.42;100806.05;1763425;80;21270;-63
2021/05/28 00:44:15;;;;;;;8.73;2.92;;;;;;;14.72;67.48;100810.13;1748950;81;21219;-63
2021/05/28 00:46:48;;;;;;;7.92;3.15;;;;;;;14.70;67.64;100807.66;1726700;81;21196;-63
2021/05/28 00:49:21;;;;;;;7.62;2.95;;;;;;;14.71;67.73;100804.53;1762630;80;21154;-64
2021/05/28 00:51:55;;;;;;;15.15;3.30;;;;;;;14.70;67.74;100810.77;1704153;84;21735;-63
2021/05/28 00:54:28;;;;;;;15.07;3.83;;;;;;;14.69;67.81;100807.30;1708480;83;21319;-63
2021/05/28 00:57:02;;;;;;;8.68;3.00;;;;;;;14.69;67.85;100811.73;1770810;80;21739;-63
2021/05/28 00:59:35;;;;;;;7.77;3.40;;;;;;;14.68;67.89;100814.05;1768813;80;21285;-64
2021/05/28 01:02:08;;;;;;;8.80;3.80;;;;;;;14.66;67.97;100811.54;1747160;81;21450;-63
2021/05/28 01:04:41;;;;;;;9.45;2.90;;;;;;;14.66;67.94;100815.50;1748295;81;21344;-65
2021/05/28 01:07:14;;;;;;;9.43;2.90;;;;;;;14.66;67.91;100809.42;1764012;81;21186;-63
2021/05/28 01:09:49;;;;;;;5.40;2.92;;;;;;;14.66;67.96;100814.69;1761655;81;21874;-63
2021/05/28 01:12:22;;;;;;;12.03;3.17;;;;;;;14.67;68.02;100813.22;1763887;81;21181;-63
2021/05/28 01:14:55;;;;;;;10.50;2.77;;;;;;;14.67;68.10;100807.11;1739169;81;21382;-64
2021/05/28 01:17:28;;;;;;;7.55;2.90;;;;;;;14.68;68.15;100804.83;1769584;81;22128;-63
2021/05/28 01:20:02;;;;;;;7.75;2.60;;;;;;;14.68;68.24;100804.83;1748308;80;21283;-63
2021/05/28 01:22:36;;;;;;;19.42;3.00;;;;;;;14.68;68.27;100808.30;1762915;81;21795;-63
2021/05/28 01:25:12;;;;;;;12.80;3.08;;;;;;;14.67;68.27;100804.47;1760157;80;21727;-63
2021/05/28 01:27:44;;;;;;;14.87;3.50;;;;;;;14.68;68.40;100808.78;1774418;80;21181;-63
2021/05/28 01:30:19;;;;;;;13.45;3.37;;;;;;;14.69;68.47;100804.66;1771042;80;21735;-64
2021/05/28 01:32:52;;;;;;;9.03;2.87;;;;;;;14.71;68.54;100804.02;1760875;80;21843;-63
2021/05/28 01:35:25;;;;;;;6.20;3.10;;;;;;;14.73;68.55;100805.21;1755765;80;21205;-63
2021/05/28 01:37:58;;;;;;;8.88;2.77;;;;;;;14.74;68.54;100794.51;1751043;80;21168;-63
2021/05/28 01:40:32;;;;;;;7.30;2.98;;;;;;;14.76;68.53;100796.98;1756898;81;21834;-63
2021/05/28 01:43:05;;;;;;;10.25;3.00;;;;;;;14.77;68.53;100794.22;1774868;80;21244;-64
2021/05/28 01:45:39;;;;;;;9.73;3.00;;;;;;;14.80;68.54;100795.24;1757382;81;21304;-63
2021/05/28 01:48:12;;;;;;;11.50;3.05;;;;;;;14.84;68.46;100793.95;1756113;80;21271;-64
2021/05/28 01:50:46;;;;;;;4.87;2.67;;;;;;;14.86;68.40;100793.80;1772228;81;21241;-63
2021/05/28 01:53:23;;;;;;;5.95;2.55;;;;;;;14.88;68.43;100791.02;1766268;80;21207;-63
2021/05/28 01:55:56;;;;;;;7.30;2.83;;;;;;;14.93;68.46;100801.92;1763745;80;21221;-63
2021/05/28 01:58:29;;;;;;;10.00;3.17;;;;;;;14.95;68.46;100796.84;1757354;80;21815;-64
2021/05/28 02:01:02;;;;;;;11.93;3.53;;;;;;;14.97;68.46;100789.63;1774480;80;21328;-63
2021/05/28 02:03:35;;;;;;;8.40;2.97;;;;;;;15.03;68.33;100792.13;1753203;81;21236;-64
2021/05/28 02:06:09;;;;;;;9.55;3.30;;;;;;;15.06;68.25;100790.52;1770726;80;21812;-63
2021/05/28 02:08:42;;;;;;;14.03;3.27;;;;;;;15.12;68.27;100793.37;1770348;80;21314;-63
2021/05/28 02:11:15;;;;;;;39.70;4.07;;;;;;;15.19;68.15;100790.98;1762049;81;21863;-63
2021/05/28 02:13:48;;;;;;;18.82;3.92;;;;;;;15.25;67.96;100789.03;1758637;80;21324;-64
2021/05/28 02:16:21;;;;;;;15.78;3.70;;;;;;;15.31;67.82;100787.08;1757319;81;21795;-65
2021/05/28 02:18:57;;;;;;;13.55;3.67;;;;;;;15.37;67.73;100794.41;1758451;80;21188;-64
2021/05/28 02:21:29;;;;;;;;;;;;;;;15.44;67.61;100795.44;1742815;80;21216;-64
2021/05/28 02:24:02;;;;;;;9.70;3.10;;;;;;;15.51;67.31;100793.88;1773079;81;20294;-63
2021/05/28 02:26:35;;;;;;;7.90;3.02;;;;;;;15.57;67.13;100791.92;1766443;80;21324;-63
2021/05/28 02:29:08;;;;;;;5.40;2.57;;;;;;;15.67;66.89;100795.77;1772056;80;21276;-63
2021/05/28 02:31:41;;;;;;;16.65;2.87;;;;;;;15.78;66.64;100798.17;1766923;80;21406;-63
2021/05/28 02:34:14;;;;;;;6.30;2.60;;;;;;;15.90;66.25;100791.64;1767508;80;21277;-63
2021/05/28 02:36:47;;;;;;;9.70;2.77;;;;;;;16.04;65.93;100797.66;1777037;80;21458;-63
2021/05/28 02:39:20;;;;;;;8.73;2.50;;;;;;;16.15;65.60;100792.91;1752667;80;21284;-64
2021/05/28 02:41:54;;;;;;;6.58;2.72;;;;;;;16.27;65.23;100786.84;1768107;81;21989;-67
2021/05/28 02:44:27;;;;;;;9.73;2.80;;;;;;;16.39;65.01;100786.89;1757285;80;21316;-67
2021/05/28 02:47:00;;;;;;;6.33;2.70;;;;;;;16.54;64.72;100794.57;1761137;80;21268;-67
2021/05/28 02:49:35;;;;;;;12.30;3.10;;;;;;;16.70;64.31;100797.73;1764158;80;21506;-67
2021/05/28 02:52:08;;;;;;;5.55;2.65;;;;;;;16.87;63.66;100793.30;1752687;81;21172;-66
2021/05/28 02:54:42;;;;;;;10.20;2.60;;;;;;;17.06;63.06;100795.63;1747895;80;21231;-67
2021/05/28 02:57:16;;;;;;;4.67;2.50;;;;;;;17.27;62.30;100791.99;1752768;81;21169;-64
2021/05/28 02:59:49;;;;;;;7.07;2.97;;;;;;;17.49;61.76;100797.45;1760711;80;21200;-65
2021/05/28 03:02:22;;;;;;;9.78;2.47;;;;;;;17.69;61.06;100790.01;1745676;81;21865;-65
2021/05/28 03:04:56;;;;;;;7.22;2.50;;;;;;;17.90;60.46;100789.45;1754997;80;21816;-63
2021/05/28 03:07:29;;;;;;;8.90;2.90;;;;;;;18.17;59.50;100787.18;1753289;80;21267;-64
2021/05/28 03:10:02;;;;;;;8.23;3.33;;;;;;;18.17;59.50;100787.18;1771336;81;22356;-63
2021/05/28 03:12:35;;;;;;;10.00;2.58;;;;;;;18.36;59.11;100780.66;1758349;81;21366;-60
2021/05/28 03:15:11;;;;;;;7.65;2.47;;;;;;;18.62;58.69;100780.38;1767919;80;21126;-60
2021/05/28 03:17:46;;;;;;;9.33;2.80;;;;;;;18.91;58.14;100778.36;1765441;80;21269;-61
2021/05/28 03:20:23;;;;;;;8.95;2.62;;;;;;;19.21;57.50;100781.42;1748332;81;21149;-62
2021/05/28 03:22:54;;;;;;;6.80;2.52;;;;;;;19.43;56.70;100778.78;1729815;82;21280;-60
2021/05/28 03:25:27;;;;;;;9.75;2.70;;;;;;;19.58;56.35;100779.30;1730400;82;21812;-60
2021/05/28 03:28:00;;;;;;;4.40;2.37;;;;;;;19.73;55.85;100775.64;1731778;82;22205;-60
2021/05/28 03:30:33;;;;;;;6.28;2.30;;;;;;;19.89;55.23;100775.98;1746935;81;21287;-60
2021/05/28 03:33:07;;;;;;;8.50;2.52;;;;;;;20.03;54.68;100777.80;1725599;81;21230;-61
2021/05/28 03:35:40;;;;;;;15.88;3.27;;;;;;;20.24;53.99;100778.40;1740718;80;21858;-61
2021/05/28 03:38:13;;;;;;;10.45;2.65;;;;;;;20.40;53.36;100778.17;1772243;80;21272;-60
2021/05/28 03:40:47;;;;;;;5.00;2.02;;;;;;;20.46;52.99;100773.45;1777023;80;21268;-61
2021/05/28 03:43:20;;;;;;;6.03;2.10;;;;;;;20.50;52.82;100770.23;1763824;80;21292;-60
2021/05/28 03:45:54;;;;;;;5.67;2.70;;;;;;;20.61;52.53;100779.57;1767817;80;21148;-61
2021/05/28 03:48:27;;;;;;;6.70;2.30;;;;;;;20.86;52.40;100774.69;1770608;80;21220;-61
2021/05/28 03:51:00;;;;;;;7.65;2.10;;;;;;;21.33;51.75;100772.27;1769587;81;21152;-60
2021/05/28 03:53:33;;;;;;;5.25;2.20;;;;;;;21.72;50.82;100765.90;1768700;80;21810;-60
2021/05/28 03:56:06;;;;;;;3.45;2.15;;;;;;;22.21;49.75;100773.76;1777074;80;21832;-60
2021/05/28 03:58:40;;;;;;;11.73;2.45;;;;;;;22.75;48.56;100769.27;1773016;80;21617;-61
2021/05/28 04:01:13;;;;;;;4.55;2.20;;;;;;;22.91;47.93;100771.22;1766717;80;21228;-61
2021/05/28 04:03:46;;;;;;;8.30;2.60;;;;;;;22.91;47.60;100779.22;1764173;80;21672;-61
2021/05/28 04:06:20;;;;;;;6.20;2.60;;;;;;;22.81;47.86;100786.30;1753897;80;21743;-61
2021/05/28 04:08:52;;;;;;;;;;;;;;;22.69;48.31;100778.56;1763550;80;21343;-61
2021/05/28 04:11:25;;;;;;;6.55;2.72;;;;;;;22.55;48.84;100776.35;1760648;80;20821;-60
2021/05/28 04:13:58;;;;;;;4.90;2.08;;;;;;;22.41;49.24;100776.00;1769785;80;21335;-61
2021/05/28 04:16:32;;;;;;;8.20;2.12;;;;;;;22.33;49.72;100777.50;1768250;81;21799;-60
2021/05/28 04:19:06;;;;;;;4.55;2.05;;;;;;;22.30;49.57;100775.77;1765461;81;22106;-61
2021/05/28 04:21:39;;;;;;;9.13;2.15;;;;;;;22.28;49.63;100778.64;1763376;81;21594;-62
2021/05/28 04:24:12;;;;;;;8.30;2.65;;;;;;;22.30;49.69;100773.09;1765262;81;21298;-59
2021/05/28 04:26:45;;;;;;;7.30;2.22;;;;;;;22.27;49.63;100770.31;1768183;80;21821;-60
2021/05/28 04:29:19;;;;;;;6.70;2.02;;;;;;;22.23;49.55;100774.91;1766445;80;22115;-60
2021/05/28 04:31:52;;;;;;;4.10;1.75;;;;;;;22.18;49.70;100775.52;1766688;81;21323;-60
2021/05/28 04:34:27;;;;;;;8.03;2.05;;;;;;;22.14;49.94;100772.91;1723719;80;21387;-60
2021/05/28 04:37:01;;;;;;;7.60;2.25;;;;;;;22.07;49.86;100770.72;1753675;79;21228;-61
2021/05/28 04:39:34;;;;;;;5.55;2.10;;;;;;;22.00;50.19;100764.03;1754509;80;21311;-60
2021/05/28 04:42:08;;;;;;;7.20;2.22;;;;;;;21.97;50.48;100760.95;1750580;79;21276;-61
2021/05/28 04:44:41;;;;;;;7.50;2.40;;;;;;;21.96;50.74;100765.45;1745467;80;21542;-61
2021/05/28 04:47:15;;;;;;;7.87;2.12;;;;;;;21.94;51.11;100754.17;1748971;80;21189;-61
2021/05/28 04:49:49;;;;;;;4.15;2.10;;;;;;;21.95;51.60;100760.30;1758488;80;21998;-61
2021/05/28 04:52:23;;;;;;;7.45;2.10;;;;;;;21.98;51.92;100760.75;1738217;80;22455;-61
2021/05/28 04:54:56;;;;;;;8.43;2.60;;;;;;;22.02;52.05;100760.66;1746144;80;21438;-60
2021/05/28 04:57:30;;;;;;;12.03;2.62;;;;;;;22.09;52.24;100758.84;1737180;81;21295;-61
2021/05/28 05:00:04;;;;;;;7.58;2.02;;;;;;;22.18;52.19;100764.02;1747442;80;21176;-66
2021/05/28 05:02:38;;;;;;;6.05;1.95;;;;;;;22.32;51.96;100761.70;1738139;80;21613;-63
2021/05/28 05:05:13;;;;;;;10.25;2.60;;;;;;;22.49;51.58;100767.00;1722456;81;21365;-61
2021/05/28 05:07:48;;;;;;;15.58;5.85;;;;;;;22.69;51.22;100757.22;1733271;81;21442;-66
2021/05/28 05:10:21;;;;;;;9.25;2.40;;;;;;;22.94;50.65;100753.46;1734796;81;21382;-63
2021/05/28 05:12:55;;;;;;;3.15;2.08;;;;;;;23.32;50.03;100751.31;1726195;81;21493;-64
2021/05/28 05:15:28;;;;;;;9.45;2.12;;;;;;;23.97;49.38;100753.58;1720968;81;22147;-62
2021/05/28 05:18:01;;;;;;;12.63;2.77;;;;;;;24.85;47.72;100737.21;1727521;81;21302;-62
2021/05/28 05:20:35;;;;;;;16.67;4.08;;;;;;;25.73;45.51;100742.21;1718680;81;21205;-68
2021/05/28 05:23:08;;;;;;;9.63;2.10;;;;;;;26.78;43.39;100741.41;1706718;82;21217;-70
2021/05/28 05:25:41;;;;;;;7.17;2.30;;;;;;;27.97;40.95;100741.27;1683026;85;22192;-69
2021/05/28 05:28:15;;;;;;;10.05;2.02;;;;;;;29.28;38.33;100731.58;1736495;81;21346;-62
2021/05/28 05:30:48;;;;;;;24.72;2.52;;;;;;;30.45;35.77;100728.55;1733119;81;21287;-63
2021/05/28 05:33:22;;;;;;;7.00;1.90;;;;;;;31.03;34.26;100725.83;1728833;81;21339;-62
2021/05/28 05:35:54;;;;;;;;;;;;;;;30.98;33.25;100733.08;1708504;82;21374;-65
2021/05/28 05:38:27;;;;;;;4.87;1.80;;;;;;;30.77;33.81;100731.25;1709842;82;20306;-63
2021/05/28 05:41:01;;;;;;;6.47;2.10;;;;;;;30.57;33.94;100734.05;1716967;82;21315;-71
2021/05/28 05:43:39;;;;;;;9.38;2.27;;;;;;;30.91;32.90;100727.90;1699982;82;21379;-72
2021/05/28 05:46:13;;;;;;;12.23;2.00;;;;;;;31.51;32.16;100724.83;1714839;82;21322;-69
2021/05/28 05:48:46;;;;;;;10.13;2.12;;;;;;;32.07;31.22;100723.77;1711112;82;21325;-71
2021/05/28 05:51:19;;;;;;;11.75;2.50;;;;;;;32.38;31.34;100725.48;1707176;82;21246;-71
2021/05/28 05:53:51;;;;;;;;;;;;;;;32.33;31.33;100722.22;1697684;83;21626;-69
2021/05/28 05:56:25;;;;;;;8.73;2.10;;;;;;;32.06;31.36;100719.41;1706317;82;20456;-66
2021/05/28 05:58:59;;;;;;;12.28;1.92;;;;;;;31.58;32.19;100714.59;1672106;84;21521;-69
2021/05/28 06:01:33;;;;;;;12.23;2.72;;;;;;;31.23;32.83;100708.94;1670666;84;22086;-67
2021/05/28 06:04:06;;;;;;;;;;;;;;;30.97;33.49;100707.95;1672143;85;21213;-65
2021/05/28 06:06:40;;;;;;;18.05;2.87;;;;;;;30.75;33.08;100707.72;1680541;85;20214;-64
2021/05/28 06:09:13;;;;;;;9.30;2.08;;;;;;;30.51;32.08;100699.14;1666150;84;21363;-63
2021/05/28 06:11:45;;;;;;;;;;;;;;;30.33;32.12;100704.88;1668787;85;21272;-67
2021/05/28 06:14:19;;;;;;;4.28;1.40;;;;;;;30.21;31.83;100702.34;1688214;84;20227;-65
2021/05/28 06:16:52;;;;;;;14.25;1.82;;;;;;;30.27;31.85;100696.43;1702413;83;21196;-65
2021/05/28 06:19:25;;;;;;;9.95;1.70;;;;;;;30.60;31.23;100692.19;1733810;81;21298;-67
2021/05/28 06:21:59;;;;;;;10.60;1.55;;;;;;;31.20;30.53;100693.22;1725078;81;21326;-71
2021/05/28 06:24:32;;;;;;;;;;;;;;;31.73;29.75;100690.30;1724202;80;21936;-67
2021/05/28 06:27:08;;;;;;;13.65;1.50;;;;;;;32.28;28.83;100691.58;1714552;81;20291;-68
2021/05/28 06:29:40;;;;;;;8.55;1.40;;;;;;;33.10;28.42;100684.05;1721163;81;21302;-70
2021/05/28 06:32:13;;;;;;;;;;;;;;;33.84;26.94;100680.03;1722872;81;21295;-68
2021/05/28 06:34:45;;;;;;;3.37;1.07;;;;;;;34.62;24.98;100678.78;1721500;81;20210;-68
2021/05/28 06:37:18;;;;;;;12.53;1.10;;;;;;;35.26;23.52;100676.28;1727534;80;21348;-69
2021/05/28 06:39:52;;;;;;;12.82;1.95;;;;;;;35.76;22.72;100677.89;1740541;81;21310;-63
2021/05/28 06:42:26;;;;;;;4.37;0.95;;;;;;;36.36;22.17;100674.87;1728884;81;21243;-64
2021/05/28 06:44:59;;;;;;;7.37;1.32;;;;;;;36.95;21.27;100673.39;1725330;81;21324;-68
2021/05/28 06:47:35;;;;;;;9.48;1.25;;;;;;;37.52;20.30;100673.44;1726934;80;21227;-71
2021/05/28 06:50:13;;;;;;;3.65;0.90;;;;;;;37.96;19.46;100674.13;1735537;82;22066;-70
2021/05/28 06:52:47;;;;;;;9.35;1.47;;;;;;;38.08;19.52;100676.59;1725199;81;21219;-62
2021/05/28 06:55:20;;;;;;;13.72;1.65;;;;;;;37.89;18.93;100674.56;1722658;81;21172;-67
2021/05/28 06:57:55;;;;;;;8.88;1.10;;;;;;;37.75;19.21;100674.56;1715607;81;22055;-65
2021/05/28 07:00:28;;;;;;;2.60;0.93;;;;;;;37.35;18.20;100670.47;1744111;81;22078;-62
2021/05/28 07:03:02;;;;;;;2.83;0.88;;;;;;;36.71;18.83;100676.23;1722505;81;21205;-64
2021/05/28 07:05:36;;;;;;;5.15;1.10;;;;;;;36.22;19.74;100675.38;1710250;82;21407;-60
2021/05/28 07:08:10;;;;;;;5.62;1.45;;;;;;;35.92;19.80;100671.70;1733655;81;22015;-61
2021/05/28 07:10:44;;;;;;;6.05;1.00;;;;;;;35.69;20.03;100670.63;1735081;81;21337;-62
2021/05/28 07:13:17;;;;;;;11.20;1.62;;;;;;;35.45;19.21;100673.07;1731902;80;22035;-70
2021/05/28 07:15:51;;;;;;;4.17;0.82;;;;;;;35.06;19.42;100667.81;1735005;80;21218;-60
2021/05/28 07:18:25;;;;;;;7.10;1.10;;;;;;;34.88;19.16;100676.10;1727849;80;21297;-64
2021/05/28 07:20:59;;;;;;;15.50;1.90;;;;;;;34.63;19.59;100669.54;1731470;81;21281;-67
2021/05/28 07:23:35;;;;;;;0.75;0.70;;;;;;;34.53;19.47;100664.99;1720788;81;21326;-60
2021/05/28 07:26:08;;;;;;;3.25;1.07;;;;;;;34.32;19.55;100669.48;1730510;81;21187;-61
2021/05/28 07:28:41;;;;;;;4.17;1.27;;;;;;;34.03;20.19;100663.11;1724497;81;21204;-60
2021/05/28 07:31:15;;;;;;;5.87;1.12;;;;;;;33.86;20.21;100660.75;1722058;81;21272;-61
2021/05/28 07:33:49;;;;;;;7.65;1.37;;;;;;;33.68;20.57;100662.19;1730320;81;21295;-61
2021/05/28 07:36:23;;;;;;;9.28;1.70;;;;;;;33.45;20.88;100656.55;1736833;81;21491;-64
2021/05/28 07:38:56;;;;;;;3.47;1.20;;;;;;;33.22;21.33;100651.22;1735209;81;21345;-61
2021/05/28 07:41:34;;;;;;;2.35;0.80;;;;;;;33.03;21.64;100649.60;1725922;81;21224;-67
2021/05/28 07:44:08;;;;;;;3.00;0.93;;;;;;;32.89;21.27;100651.80;1700775;82;21315;-60
2021/05/28 07:46:44;;;;;;;8.20;0.90;;;;;;;33.18;21.80;100648.76;1711753;81;21994;-63
2021/05/28 07:49:18;;;;;;;2.37;0.85;;;;;;;33.60;21.33;100657.89;1740335;80;22150;-60
2021/05/28 07:51:52;;;;;;;5.15;0.90;;;;;;;34.23;20.72;100650.77;1716635;81;21275;-63
2021/05/28 07:54:25;;;;;;;6.15;0.90;;;;;;;34.78;20.17;100646.81;1718575;81;21318;-63
2021/05/28 07:56:59;;;;;;;3.83;0.60;;;;;;;35.46;19.77;100644.21;1701254;83;21584;-63
2021/05/28 07:59:33;;;;;;;3.55;0.90;;;;;;;36.04;19.56;100642.09;1695381;83;21314;-60
2021/05/28 08:02:06;;;;;;;6.58;1.10;;;;;;;36.54;18.14;100632.91;1692833;82;21236;-62
2021/05/28 08:04:39;;;;;;;6.58;1.20;;;;;;;37.11;17.52;100627.80;1705895;82;22024;-62
2021/05/28 08:07:13;;;;;;;4.80;0.82;;;;;;;37.70;16.98;100629.59;1706078;82;21506;-63
2021/05/28 08:09:48;;;;;;;2.17;0.72;;;;;;;38.22;16.45;100628.68;1705530;82;21568;-64
2021/05/28 08:12:22;;;;;;;6.22;0.90;;;;;;;38.45;16.36;100622.69;1700960;82;22109;-63
2021/05/28 08:14:56;;;;;;;6.53;0.80;;;;;;;38.43;15.96;100631.77;1713547;82;21233;-66
2021/05/28 08:17:31;;;;;;;4.03;0.93;;;;;;;38.40;15.27;100628.55;1703264;82;21200;-63
2021/05/28 08:20:05;;;;;;;4.83;0.95;;;;;;;38.39;15.09;100617.90;1705759;82;21230;-63
2021/05/28 08:22:39;;;;;;;3.55;0.60;;;;;;;38.50;14.83;100617.91;1713708;82;21359;-64
2021/05/28 08:25:15;;;;;;;6.85;0.88;;;;;;;38.49;14.29;100612.17;1703889;82;21657;-64
2021/05/28 08:27:49;;;;;;;3.33;0.65;;;;;;;38.37;14.34;100608.65;1710552;82;21327;-67
2021/05/28 08:30:23;;;;;;;6.62;0.80;;;;;;;38.31;14.40;100607.14;1705233;82;21188;-63
2021/05/28 08:32:56;;;;;;;4.15;0.70;;;;;;;38.39;14.72;100609.70;1707576;82;21197;-66
2021/05/28 08:35:29;;;;;;;4.20;0.93;;;;;;;38.32;14.38;100610.69;1718765;82;21228;-65
2021/05/28 08:38:02;;;;;;;18.80;1.95;;;;;;;38.15;14.91;100609.16;1712449;82;21361;-62
2021/05/28 08:40:36;;;;;;;2.72;0.60;;;;;;;38.05;15.00;100607.48;1710120;82;21250;-62
2021/05/28 08:43:09;;;;;;;3.42;1.00;;;;;;;37.69;15.34;100602.00;1720106;82;21653;-65
2021/05/28 08:45:45;;;;;;;5.33;0.75;;;;;;;37.37;15.42;100596.68;1722473;82;21238;-65
2021/05/28 08:48:20;;;;;;;9.95;1.00;;;;;;;37.01;16.01;100594.41;1704453;82;22256;-66
2021/05/28 08:50:53;;;;;;;1.95;0.80;;;;;;;36.79;16.67;100586.88;1706570;82;21498;-63
2021/05/28 08:53:28;;;;;;;9.40;0.80;;;;;;;36.67;15.99;100594.75;1715501;82;21330;-66
2021/05/28 08:56:10;;;;;;;3.55;0.70;;;;;;;36.54;15.54;100599.63;1702114;82;21216;-61
2021/05/28 08:58:44;;;;;;;9.28;1.10;;;;;;;36.47;15.69;100591.03;1708620;82;21229;-61
2021/05/28 09:01:18;;;;;;;5.03;0.50;;;;;;;36.41;16.51;100584.81;1708211;82;21346;-60
2021/05/28 09:04:00;;;;;;;6.90;1.00;;;;;;;36.32;16.79;100586.61;1698136;82;21244;-60
2021/05/28 09:06:44;;;;;;;5.25;1.22;;;;;;;36.11;16.45;100588.05;1706788;82;22125;-61
2021/05/28 09:09:29;;;;;;;16.20;1.20;;;;;;;35.82;16.87;100588.19;1727367;81;21345;-59
2021/05/28 09:12:05;;;;;;;2.70;0.60;;;;;;;35.45;17.45;100583.22;1722814;80;21204;-59
2021/05/28 09:14:40;;;;;;;1.20;0.60;;;;;;;35.42;17.87;100577.80;1729151;80;22036;-59
2021/05/28 09:17:14;;;;;;;48.28;3.67;;;;;;;35.65;17.71;100574.81;1727688;81;21303;-60
2021/05/28 09:19:57;;;;;;;6.33;0.98;;;;;;;35.80;17.35;100575.39;1719181;81;21499;-60
2021/05/28 09:22:35;;;;;;;6.50;0.88;;;;;;;35.72;17.49;100571.17;1722824;81;21319;-61
2021/05/28 09:25:10;;;;;;;4.40;0.70;;;;;;;35.51;17.36;100576.11;1736693;81;21273;-60
2021/05/28 09:27:50;;;;;;;6.05;1.20;;;;;;;35.11;17.56;100568.39;1719391;81;21330;-60
2021/05/28 09:30:19;;;;;;;6.92;0.90;;;;;;;34.94;17.80;100567.47;1726175;81;21228;-62
2021/05/28 09:32:52;;;;;;;10.58;0.90;;;;;;;34.68;18.40;100556.61;1715855;81;21204;-60
2021/05/28 09:35:25;;;;;;;4.67;0.70;;;;;;;34.37;18.79;100551.17;1731954;81;21298;-59
2021/05/28 09:37:57;;;;;;;;;;;;;;;34.12;18.92;100560.37;1740508;81;21276;-62
2021/05/28 09:40:32;;;;;;;4.42;0.98;;;;;;;33.86;19.16;100560.26;1734374;82;20201;-59
2021/05/28 09:43:13;;;;;;;4.40;0.90;;;;;;;33.47;19.53;100564.25;1722872;81;21295;-60
2021/05/28 09:45:42;;;;;;;3.02;0.80;;;;;;;33.03;19.63;100562.02;1721810;81;21501;-58
2021/05/28 09:48:18;;;;;;;;;;;;;;;32.56;20.37;100558.27;1742892;80;21231;-60
2021/05/28 09:50:56;;;;;;;2.50;0.70;;;;;;;32.21;20.39;100546.91;1732874;81;20814;-59
2021/05/28 09:53:42;;;;;;;3.87;0.90;;;;;;;32.01;21.11;100548.77;1734216;81;21664;-63
2021/05/28 09:56:32;;;;;;;7.08;0.93;;;;;;;31.84;21.40;100542.22;1726359;80;21187;-58
2021/05/28 09:59:06;;;;;;;4.75;0.80;;;;;;;31.60;22.64;100554.09;1734384;82;21290;-59
2021/05/28 10:01:44;;;;;;;1.72;0.80;;;;;;;31.51;22.03;100545.41;1705033;82;21284;-60
2021/05/28 10:04:17;;;;;;;2.58;0.70;;;;;;;31.46;22.31;100551.61;1718654;82;21379;-61
2021/05/28 10:06:51;;;;;;;3.67;0.75;;;;;;;31.45;22.64;100546.48;1718143;82;22461;-58
2021/05/28 10:09:26;;;;;;;7.15;0.90;;;;;;;31.31;21.96;100546.93;1736612;80;22147;-64
2021/05/28 10:11:59;;;;;;;2.65;0.90;;;;;;;31.20;22.48;100551.22;1730423;81;21362;-63
2021/05/28 10:14:33;;;;;;;3.72;0.80;;;;;;;30.93;22.72;100547.30;1726781;81;21391;-66
2021/05/28 10:17:07;;;;;;;4.30;0.75;;;;;;;30.59;22.97;100549.50;1730856;81;22265;-64
2021/05/28 10:19:41;;;;;;;5.85;0.80;;;;;;;30.42;23.04;100534.00;1729485;81;21919;-64
2021/05/28 10:22:22;;;;;;;5.15;1.00;;;;;;;30.49;23.45;100537.82;1728152;81;21326;-59
2021/05/28 10:24:51;;;;;;;11.33;1.30;;;;;;;30.70;23.51;100533.35;1729947;80;21474;-62
2021/05/28 10:27:26;;;;;;;6.33;0.80;;;;;;;30.86;24.02;100535.09;1727968;81;21644;-63
2021/05/28 10:29:59;;;;;;;1.25;0.50;;;;;;;31.00;22.95;100525.45;1725469;81;21276;-62
2021/05/28 10:32:33;;;;;;;4.35;0.78;;;;;;;31.14;22.59;100522.54;1732310;80;21323;-67
2021/05/28 10:35:21;;;;;;;1.87;0.75;;;;;;;31.26;23.01;100519.86;1721324;80;21342;-61
2021/05/28 10:37:51;;;;;;;6.50;0.80;;;;;;;31.24;22.86;100519.31;1733505;80;21354;-69
2021/05/28 10:40:29;;;;;;;1.92;0.75;;;;;;;31.16;23.18;100517.14;1730301;81;22157;-61
2021/05/28 10:43:06;;;;;;;2.65;0.60;;;;;;;30.99;22.64;100513.82;1730694;81;21369;-66
2021/05/28 10:46:10;;;;;;;3.62;0.75;;;;;;;30.84;22.81;100510.19;1741992;80;22143;-63
2021/05/28 10:48:51;;;;;;;7.00;1.00;;;;;;;30.62;22.63;100504.92;1730865;82;21291;-62
2021/05/28 10:51:34;;;;;;;;;;;;;;;30.43;22.92;100510.48;1722239;80;21291;-62
2021/05/28 10:54:12;;;;;;;3.98;0.75;;;;;;;30.29;23.53;100506.56;1708400;81;20243;-65
2021/05/28 10:56:46;;;;;;;2.75;0.60;;;;;;;30.14;23.21;100499.72;1727394;82;21848;-69
2021/05/28 10:59:23;;;;;;;;;;;;;;;30.00;22.99;100495.27;1732392;81;21366;-63
2021/05/28 11:01:57;;;;;;;4.67;0.70;;;;;;;29.85;24.11;100496.51;1717932;81;20682;-63
2021/05/28 11:04:35;;;;;;;6.50;0.80;;;;;;;29.73;23.83;100493.12;1727403;81;22113;-62
2021/05/28 11:07:16;;;;;;;7.37;1.17;;;;;;;29.70;24.94;100494.45;1723256;81;21406;-64
2021/05/28 11:09:50;;;;;;;4.10;1.07;;;;;;;29.80;24.75;100490.53;1729979;81;21485;-62
2021/05/28 11:12:39;;;;;;;8.68;1.27;;;;;;;29.94;25.07;100489.56;1719307;81;22070;-64
2021/05/28 11:15:16;;;;;;;6.35;0.68;;;;;;;30.00;24.64;100484.47;1732387;81;21553;-62
2021/05/28 11:18:08;;;;;;;12.28;1.65;;;;;;;30.07;24.69;100489.11;1721123;82;21279;-72
2021/05/28 11:20:45;;;;;;;2.80;0.60;;;;;;;30.05;24.50;100485.05;1715941;82;21275;-69
2021/05/28 11:23:24;;;;;;;7.65;0.80;;;;;;;30.03;24.45;100476.39;1722491;81;21195;-65
2021/05/28 11:25:57;;;;;;;6.47;0.85;;;;;;;30.04;24.31;100474.80;1719015;81;21373;-69
2021/05/28 11:28:32;;;;;;;2.83;0.80;;;;;;;29.92;25.17;100472.28;1737867;81;21294;-60
2021/05/28 11:31:07;;;;;;;3.52;0.90;;;;;;;29.87;25.88;100480.87;1698611;81;22129;-63
2021/05/28 11:33:46;;;;;;;16.10;1.10;;;;;;;29.78;25.06;100473.75;1682432;81;21576;-61
2021/05/28 11:36:39;;;;;;;2.80;0.80;;;;;;;29.69;25.70;100469.87;1708146;81;21323;-64
2021/05/28 11:39:26;;;;;;;3.12;0.70;;;;;;;29.69;25.76;100470.39;1729446;82;22101;-61
2021/05/28 11:42:04;;;;;;;4.95;1.00;;;;;;;29.66;25.35;100465.53;1717594;82;21335;-65
2021/05/28 11:44:40;;;;;;;1.98;0.75;;;;;;;29.67;25.69;100460.40;1705728;80;21290;-65
2021/05/28 11:47:13;;;;;;;1.85;0.88;;;;;;;29.68;24.64;100460.69;1717980;81;21502;-64
2021/05/28 11:49:47;;;;;;;1.85;0.80;;;;;;;29.57;24.10;100461.67;1719525;81;22151;-70
2021/05/28 11:52:20;;;;;;;4.17;0.80;;;;;;;29.41;23.90;100453.95;1739871;81;21378;-69
2021/05/28 11:55:09;;;;;;;8.85;1.00;;;;;;;29.33;24.33;100451.70;1721716;81;21346;-64
2021/05/28 11:57:42;;;;;;;5.42;1.07;;;;;;;29.21;24.52;100458.59;1712457;82;21326;-68
2021/05/28 12:00:17;;;;;;;5.00;0.93;;;;;;;29.07;24.42;100452.45;1716341;81;21890;-64